createdAt,value
2022-10-06T00:04:03.410Z,100731.22
2022-10-06T00:09:05.237Z,100737.78
2022-10-06T00:14:07.363Z,100737.75
2022-10-06T00:19:09.014Z,100730.09
2022-10-06T00:24:10.967Z,100742.88
2022-10-06T00:29:13.698Z,100785.03
2022-10-06T00:34:15.567Z,100780.09
2022-10-06T00:39:17.261Z,100800.38
2022-10-06T00:44:19.013Z,100809.66
2022-10-06T00:49:28.083Z,100814.75
2022-10-06T00:54:31.810Z,100803.50
2022-10-06T00:59:35.083Z,100783.19
2022-10-06T01:04:43.406Z,100788.78
2022-10-06T01:09:45.669Z,100781.13
2022-10-06T01:14:49.122Z,100770.13
2022-10-06T01:20:05.981Z,100772.53
2022-10-06T01:25:10.190Z,100772.53
2022-10-06T01:30:17.235Z,100755.50
2022-10-06T01:35:19.203Z,100786.81
2022-10-06T01:40:21.347Z,100779.38
2022-10-06T01:45:23.352Z,100771.72
2022-10-06T01:50:25.464Z,100790.41
2022-10-06T01:55:27.763Z,100787.06
2022-10-06T02:00:32.818Z,100782.16
2022-10-06T02:05:35.783Z,100779.50
2022-10-06T02:10:37.689Z,100768.50
2022-10-06T02:15:44.547Z,100787.66
2022-10-06T02:20:46.305Z,100791.09
2022-10-06T02:25:48.102Z,100774.28
2022-10-06T02:30:50.199Z,100794.63
2022-10-06T02:35:56.050Z,100792.09
2022-10-06T02:41:00.001Z,100802.25
2022-10-06T02:46:08.129Z,100809.84
2022-10-06T02:51:13.310Z,100819.03
2022-10-06T02:56:22.152Z,100818.84
2022-10-06T03:01:27.201Z,100803.47
2022-10-06T03:06:32.138Z,100811.66
2022-10-06T03:11:41.587Z,100816.25
2022-10-06T03:16:46.096Z,100825.63
2022-10-06T03:21:53.862Z,100829.84
2022-10-06T03:27:00.240Z,100830.00
2022-10-06T03:32:02.009Z,100842.63
2022-10-06T03:37:04.285Z,100835.78
2022-10-06T03:42:06.506Z,100843.22
2022-10-06T03:47:13.228Z,100843.03
2022-10-06T03:52:22.397Z,100846.03
2022-10-06T03:57:28.041Z,100855.88
2022-10-06T04:02:30.397Z,100857.50
2022-10-06T04:07:33.417Z,100849.94
2022-10-06T04:12:36.813Z,100873.38
2022-10-06T04:17:38.755Z,100863.13
2022-10-06T04:22:40.651Z,100863.94
2022-10-06T04:27:43.063Z,100875.50
2022-10-06T04:32:48.268Z,100863.41
2022-10-06T04:37:50.375Z,100883.66
2022-10-06T04:42:52.757Z,100861.19
2022-10-06T04:47:54.746Z,100878.66
2022-10-06T04:52:57.072Z,100876.63
2022-10-06T04:57:58.888Z,100896.88
2022-10-06T05:03:00.749Z,100890.88
2022-10-06T05:08:02.494Z,100903.59
2022-10-06T05:13:06.178Z,100901.25
2022-10-06T05:18:08.334Z,100904.53
2022-10-06T05:23:10.421Z,100924.75
2022-10-06T05:28:12.353Z,100925.78
2022-10-06T05:33:14.437Z,100930.91
2022-10-06T05:38:16.979Z,100927.41
2022-10-06T05:43:19.177Z,100955.19
2022-10-06T05:48:21.300Z,100959.81
2022-10-06T05:53:23.589Z,100958.69
2022-10-06T05:58:25.902Z,100972.00
2022-10-06T06:03:28.212Z,100962.03
2022-10-06T06:08:32.401Z,100980.22
2022-10-06T06:13:36.066Z,100980.00
2022-10-06T06:18:42.770Z,100983.19
2022-10-06T06:23:48.738Z,101004.06
2022-10-06T06:28:55.440Z,101017.28
2022-10-06T06:33:59.336Z,101027.78
2022-10-06T06:39:06.462Z,101039.25
2022-10-06T06:44:11.491Z,101033.69
2022-10-06T06:49:20.108Z,101042.31
2022-10-06T06:54:27.824Z,101047.88
2022-10-06T06:59:35.985Z,101044.88
2022-10-06T07:04:39.925Z,101041.78
2022-10-06T07:09:44.283Z,101055.00
2022-10-06T07:15:06.620Z,101045.41
2022-10-06T07:20:43.066Z,101061.78
2022-10-06T07:25:45.436Z,101063.13
2022-10-06T07:30:48.388Z,101065.97
2022-10-06T07:35:55.192Z,101055.38
2022-10-06T07:41:18.516Z,101064.69
2022-10-06T07:46:24.616Z,101044.69
2022-10-06T07:51:44.877Z,101070.72
2022-10-06T07:56:46.710Z,101069.44
2022-10-06T08:01:51.170Z,101082.19
2022-10-06T08:06:54.510Z,101053.34
2022-10-06T08:11:56.436Z,101074.00
2022-10-06T08:17:00.961Z,101066.41
2022-10-06T08:22:04.916Z,101065.53
2022-10-06T08:27:07.162Z,101082.09
2022-10-06T08:32:08.813Z,101091.66
2022-10-06T08:37:19.814Z,101081.63
2022-10-06T08:42:42.634Z,101080.94
2022-10-06T08:47:56.830Z,101082.75
2022-10-06T08:53:23.317Z,101085.53
2022-10-06T08:58:52.781Z,101086.47
2022-10-06T09:04:01.745Z,101063.69
2022-10-06T09:09:14.867Z,101085.06
2022-10-06T09:14:33.591Z,101086.84
2022-10-06T09:19:44.315Z,101092.00
2022-10-06T09:24:50.363Z,101086.91
2022-10-06T09:29:52.613Z,101077.63
2022-10-06T09:34:57.132Z,101078.56
2022-10-06T09:39:59.085Z,101080.28
2022-10-06T09:45:16.278Z,101081.13
2022-10-06T09:50:26.396Z,101082.81
2022-10-06T09:55:41.492Z,101092.13
2022-10-06T10:00:48.157Z,101092.94
2022-10-06T10:05:52.156Z,101082.72
2022-10-06T10:11:32.272Z,101103.84
2022-10-06T10:16:35.799Z,101091.06
2022-10-06T10:21:38.140Z,101096.94
2022-10-06T10:27:14.375Z,101084.19
2022-10-06T10:32:23.444Z,101091.66
2022-10-06T10:37:33.790Z,101080.44
2022-10-06T10:42:50.778Z,101085.47
2022-10-06T10:47:54.321Z,101082.78
2022-10-06T10:53:02.586Z,101086.66
2022-10-06T10:58:29.477Z,101079.72
2022-10-06T11:03:31.568Z,101068.50
2022-10-06T11:08:39.797Z,101070.56
2022-10-06T11:13:52.458Z,101059.19
2022-10-06T11:19:22.105Z,101056.56
2022-10-06T11:24:36.313Z,101068.19
2022-10-06T11:29:53.833Z,101067.94
2022-10-06T11:34:55.530Z,101063.31
2022-10-06T11:40:31.876Z,101053.59
2022-10-06T11:45:44.998Z,101056.50
2022-10-06T11:50:51.073Z,101047.31
2022-10-06T11:56:18.152Z,101050.25
2022-10-06T12:01:36.235Z,101046.00
2022-10-06T12:06:47.132Z,101033.94
2022-10-06T12:11:50.428Z,101030.84
2022-10-06T12:17:15.307Z,101012.72
2022-10-06T12:22:30.948Z,101028.19
2022-10-06T12:27:48.257Z,101020.97
2022-10-06T12:32:59.200Z,101016.22
2022-10-06T12:38:06.449Z,101016.19
2022-10-06T12:43:27.174Z,101016.56
2022-10-06T12:48:34.746Z,101019.47
2022-10-06T12:53:41.604Z,101011.75
2022-10-06T12:58:43.541Z,101019.97
2022-10-06T13:03:50.229Z,101023.50
2022-10-06T13:09:14.586Z,101019.69
2022-10-06T13:14:16.470Z,101015.59
2022-10-06T13:19:28.338Z,101014.78
2022-10-06T13:24:30.062Z,101015.50
2022-10-06T13:29:31.938Z,101015.25
2022-10-06T13:34:41.970Z,101011.88
2022-10-06T13:39:43.803Z,101018.66
2022-10-06T13:44:54.057Z,101023.91
2022-10-06T13:50:06.089Z,101025.59
2022-10-06T13:55:18.997Z,101017.69
2022-10-06T14:00:22.091Z,101017.53
2022-10-06T14:05:30.407Z,101015.81
2022-10-06T14:10:41.215Z,101021.75
2022-10-06T14:15:50.599Z,101019.59
2022-10-06T14:20:56.549Z,101024.09
2022-10-06T14:25:58.627Z,101026.50
2022-10-06T14:31:01.151Z,101026.63
2022-10-06T14:36:03.295Z,101012.44
2022-10-06T14:41:05.074Z,101016.13
2022-10-06T14:46:10.311Z,101029.03
2022-10-06T14:51:12.027Z,101025.72
2022-10-06T14:56:14.653Z,101033.47
2022-10-06T15:01:17.785Z,101033.66
2022-10-06T15:06:57.892Z,101021.94
2022-10-06T15:12:00.207Z,101035.75
2022-10-06T15:17:02.325Z,101034.19
2022-10-06T15:22:06.361Z,101037.81
2022-10-06T15:27:28.066Z,101033.84
2022-10-06T15:32:29.732Z,101046.88
2022-10-06T15:37:32.123Z,101046.28
2022-10-06T15:42:33.743Z,101040.59
2022-10-06T15:47:35.573Z,101042.56
2022-10-06T15:52:37.367Z,101047.88
2022-10-06T15:57:38.956Z,101051.50
2022-10-06T16:02:40.881Z,101057.00
2022-10-06T16:07:42.915Z,101067.41
2022-10-06T16:12:45.214Z,101067.63
2022-10-06T16:17:46.824Z,101072.91
2022-10-06T16:22:48.470Z,101082.53
2022-10-06T16:27:50.250Z,101087.09
2022-10-06T16:32:52.198Z,101089.97
2022-10-06T16:37:54.177Z,101087.75
2022-10-06T16:42:57.744Z,101093.91
2022-10-06T16:47:59.672Z,101119.56
2022-10-06T16:53:01.490Z,101122.31
2022-10-06T16:58:03.375Z,101124.19
2022-10-06T17:03:05.191Z,101122.59
2022-10-06T17:08:06.816Z,101132.91
2022-10-06T17:13:08.974Z,101116.03
2022-10-06T17:18:10.568Z,101131.41
2022-10-06T17:23:13.033Z,101131.47
2022-10-06T17:28:14.906Z,101133.25
2022-10-06T17:33:17.190Z,101143.53
2022-10-06T17:38:18.814Z,101143.59
2022-10-06T17:43:20.483Z,101151.34
2022-10-06T17:48:27.114Z,101150.53
2022-10-06T17:53:28.839Z,101153.97
2022-10-06T17:58:30.654Z,101154.00
2022-10-06T18:03:35.745Z,101146.38
2022-10-06T18:08:42.553Z,101135.38
2022-10-06T18:13:45.388Z,101154.06
2022-10-06T18:18:49.662Z,101139.69
2022-10-06T18:31:50.706Z,101148.19
2022-10-06T18:36:53.055Z,101147.34
2022-10-06T18:41:55.058Z,101151.56
2022-10-06T18:47:15.476Z,101170.22
2022-10-06T18:52:17.745Z,101168.50
2022-10-06T18:57:23.811Z,101155.75
2022-10-06T19:02:28.750Z,101167.66
2022-10-06T19:07:30.721Z,101170.16
2022-10-06T19:12:32.919Z,101176.00
2022-10-06T19:17:35.281Z,101175.09
2022-10-06T19:22:37.341Z,101175.91
2022-10-06T19:27:39.486Z,101177.63
2022-10-06T19:32:41.350Z,101179.88
2022-10-06T19:37:43.311Z,101189.25
2022-10-06T19:42:48.400Z,101194.41
2022-10-06T19:47:51.403Z,101197.38
2022-10-06T19:52:53.121Z,101194.88
2022-10-06T19:57:54.915Z,101197.53
2022-10-06T20:02:57.190Z,101207.75
2022-10-06T20:07:59.084Z,101194.19
2022-10-06T20:13:00.925Z,101196.75
2022-10-06T20:18:04.492Z,101200.97
2022-10-06T20:23:07.344Z,101197.59
2022-10-06T20:28:10.790Z,101206.03
2022-10-06T20:33:12.898Z,101188.84
2022-10-06T20:38:14.814Z,101204.00
2022-10-06T20:43:16.909Z,101199.59
2022-10-06T20:48:19.127Z,101204.59
2022-10-06T20:53:20.976Z,101200.34
2022-10-06T20:58:25.100Z,101188.34
2022-10-06T21:03:26.669Z,101196.81
2022-10-06T21:08:30.065Z,101206.94
2022-10-06T21:13:32.539Z,101207.72
2022-10-06T21:18:34.433Z,101189.09
2022-10-06T21:23:51.936Z,101192.38
2022-10-06T21:28:53.988Z,101205.31
2022-10-06T21:33:56.176Z,101204.69
2022-10-06T21:39:00.280Z,101212.44
2022-10-06T21:44:08.968Z,101201.53
2022-10-06T21:49:13.113Z,101202.47
2022-10-06T21:54:15.315Z,101196.53
2022-10-06T21:59:17.824Z,101193.13
2022-10-06T22:04:19.820Z,101184.59
2022-10-06T22:09:22.157Z,101189.72
2022-10-06T22:14:24.266Z,101187.13
2022-10-06T22:19:26.192Z,101192.03
2022-10-06T22:24:30.417Z,101195.41
2022-10-06T22:29:32.280Z,101194.56
2022-10-06T22:34:34.147Z,101185.22
2022-10-06T22:39:35.740Z,101186.81
2022-10-06T22:44:37.620Z,101189.25
2022-10-06T22:49:39.318Z,101174.63
2022-10-06T22:54:41.413Z,101164.16
2022-10-06T22:59:44.449Z,101166.06
2022-10-06T23:04:46.275Z,101182.19
2022-10-06T23:09:48.640Z,101181.31
2022-10-06T23:14:50.511Z,101173.66
2022-10-06T23:19:52.160Z,101168.47
2022-10-06T23:24:53.979Z,101178.59
2022-10-06T23:29:55.929Z,101170.91
2022-10-06T23:34:58.405Z,101175.13
2022-10-06T23:40:00.942Z,101169.06
2022-10-06T23:45:03.131Z,101180.09
2022-10-06T23:50:05.541Z,101178.22
2022-10-06T23:55:07.781Z,101175.56
